sensor_id;sensor_type;location;lat;lon;timestamp;temperature;humidity
30148;DHT22;16960;49.404;8.248;2024-01-11T00:00:17;20.10;32.10
30148;DHT22;16960;49.404;8.248;2024-01-11T00:02:45;20.00;32.10
30148;DHT22;16960;49.404;8.248;2024-01-11T00:05:13;20.10;32.20
30148;DHT22;16960;49.404;8.248;2024-01-11T00:07:40;20.10;32.20
30148;DHT22;16960;49.404;8.248;2024-01-11T00:10:07;20.10;32.20
30148;DHT22;16960;49.404;8.248;2024-01-11T00:12:34;20.10;32.20
30148;DHT22;16960;49.404;8.248;2024-01-11T00:15:01;20.00;32.20
30148;DHT22;16960;49.404;8.248;2024-01-11T00:17:28;20.00;32.10
30148;DHT22;16960;49.404;8.248;2024-01-11T00:19:55;20.10;32.20
30148;DHT22;16960;49.404;8.248;2024-01-11T00:22:23;20.00;32.20
30148;DHT22;16960;49.404;8.248;2024-01-11T00:24:55;20.00;32.20
30148;DHT22;16960;49.404;8.248;2024-01-11T00:27:22;20.00;32.20
30148;DHT22;16960;49.404;8.248;2024-01-11T00:29:49;20.00;32.20
30148;DHT22;16960;49.404;8.248;2024-01-11T00:32:16;20.00;32.20
30148;DHT22;16960;49.404;8.248;2024-01-11T00:34:43;20.00;32.20
30148;DHT22;16960;49.404;8.248;2024-01-11T00:37:10;20.00;32.20
30148;DHT22;16960;49.404;8.248;2024-01-11T00:39:38;20.10;32.30
30148;DHT22;16960;49.404;8.248;2024-01-11T00:42:05;20.00;32.20
30148;DHT22;16960;49.404;8.248;2024-01-11T00:44:32;20.00;32.30
30148;DHT22;16960;49.404;8.248;2024-01-11T00:46:59;20.00;32.30
30148;DHT22;16960;49.404;8.248;2024-01-11T00:49:26;20.00;32.30
30148;DHT22;16960;49.404;8.248;2024-01-11T00:51:53;20.00;32.30
30148;DHT22;16960;49.404;8.248;2024-01-11T00:54:20;20.00;32.90
30148;DHT22;16960;49.404;8.248;2024-01-11T00:56:49;20.00;32.30
30148;DHT22;16960;49.404;8.248;2024-01-11T00:59:15;20.00;32.40
30148;DHT22;16960;49.404;8.248;2024-01-11T01:01:47;20.00;32.40
30148;DHT22;16960;49.404;8.248;2024-01-11T01:04:14;20.00;32.40
30148;DHT22;16960;49.404;8.248;2024-01-11T01:06:41;20.00;32.40
30148;DHT22;16960;49.404;8.248;2024-01-11T01:09:08;20.00;32.40
30148;DHT22;16960;49.404;8.248;2024-01-11T01:11:35;20.00;32.40
30148;DHT22;16960;49.404;8.248;2024-01-11T01:14:04;20.00;32.40
30148;DHT22;16960;49.404;8.248;2024-01-11T01:16:31;20.00;32.40
30148;DHT22;16960;49.404;8.248;2024-01-11T01:18:58;20.00;32.40
30148;DHT22;16960;49.404;8.248;2024-01-11T01:21:25;20.00;32.40
30148;DHT22;16960;49.404;8.248;2024-01-11T01:23:52;20.00;32.40
30148;DHT22;16960;49.404;8.248;2024-01-11T01:26:18;20.00;32.40
30148;DHT22;16960;49.404;8.248;2024-01-11T01:28:45;19.90;32.40
30148;DHT22;16960;49.404;8.248;2024-01-11T01:31:14;20.00;32.40
30148;DHT22;16960;49.404;8.248;2024-01-11T01:33:41;19.90;32.40
30148;DHT22;16960;49.404;8.248;2024-01-11T01:36:08;19.90;32.40
30148;DHT22;16960;49.404;8.248;2024-01-11T01:38:35;19.90;32.40
30148;DHT22;16960;49.404;8.248;2024-01-11T01:41:02;19.90;32.40
30148;DHT22;16960;49.404;8.248;2024-01-11T01:43:29;19.90;32.40
30148;DHT22;16960;49.404;8.248;2024-01-11T01:45:56;20.00;32.40
30148;DHT22;16960;49.404;8.248;2024-01-11T01:48:25;20.00;32.50
30148;DHT22;16960;49.404;8.248;2024-01-11T01:50:53;19.90;32.50
30148;DHT22;16960;49.404;8.248;2024-01-11T01:53:21;19.90;32.50
30148;DHT22;16960;49.404;8.248;2024-01-11T01:55:48;19.90;32.50
30148;DHT22;16960;49.404;8.248;2024-01-11T01:58:15;19.90;32.50
30148;DHT22;16960;49.404;8.248;2024-01-11T02:00:44;19.90;32.50
30148;DHT22;16960;49.404;8.248;2024-01-11T02:03:12;19.90;32.60
30148;DHT22;16960;49.404;8.248;2024-01-11T02:05:43;19.90;32.50
30148;DHT22;16960;49.404;8.248;2024-01-11T02:08:15;19.90;32.50
30148;DHT22;16960;49.404;8.248;2024-01-11T02:10:42;19.90;32.50
30148;DHT22;16960;49.404;8.248;2024-01-11T02:13:09;19.90;32.50
30148;DHT22;16960;49.404;8.248;2024-01-11T02:15:37;19.90;32.50
30148;DHT22;16960;49.404;8.248;2024-01-11T02:18:04;19.90;32.50
30148;DHT22;16960;49.404;8.248;2024-01-11T02:20:31;19.90;32.50
30148;DHT22;16960;49.404;8.248;2024-01-11T02:23:03;19.90;32.50
30148;DHT22;16960;49.404;8.248;2024-01-11T02:25:33;19.90;32.50
30148;DHT22;16960;49.404;8.248;2024-01-11T02:28:00;19.90;32.50
30148;DHT22;16960;49.404;8.248;2024-01-11T02:30:26;19.90;32.40
30148;DHT22;16960;49.404;8.248;2024-01-11T02:32:53;19.90;32.50
30148;DHT22;16960;49.404;8.248;2024-01-11T02:35:21;19.90;32.40
30148;DHT22;16960;49.404;8.248;2024-01-11T02:37:48;19.90;32.50
30148;DHT22;16960;49.404;8.248;2024-01-11T02:40:15;19.90;32.40
30148;DHT22;16960;49.404;8.248;2024-01-11T02:42:43;19.90;32.40
30148;DHT22;16960;49.404;8.248;2024-01-11T02:45:11;19.80;32.30
30148;DHT22;16960;49.404;8.248;2024-01-11T02:47:39;19.80;32.30
30148;DHT22;16960;49.404;8.248;2024-01-11T02:50:06;19.80;32.30
30148;DHT22;16960;49.404;8.248;2024-01-11T02:52:33;19.80;32.30
30148;DHT22;16960;49.404;8.248;2024-01-11T02:55:00;19.90;32.40
30148;DHT22;16960;49.404;8.248;2024-01-11T02:57:27;19.80;32.30
30148;DHT22;16960;49.404;8.248;2024-01-11T02:59:55;19.80;32.30
30148;DHT22;16960;49.404;8.248;2024-01-11T03:02:22;19.80;32.30
30148;DHT22;16960;49.404;8.248;2024-01-11T03:04:49;19.80;32.30
30148;DHT22;16960;49.404;8.248;2024-01-11T03:07:16;19.90;32.40
30148;DHT22;16960;49.404;8.248;2024-01-11T03:09:43;19.80;32.40
30148;DHT22;16960;49.404;8.248;2024-01-11T03:12:10;19.90;32.40
30148;DHT22;16960;49.404;8.248;2024-01-11T03:14:37;19.80;32.40
30148;DHT22;16960;49.404;8.248;2024-01-11T03:17:05;19.80;32.40
30148;DHT22;16960;49.404;8.248;2024-01-11T03:19:32;19.80;32.40
30148;DHT22;16960;49.404;8.248;2024-01-11T03:21:59;19.80;32.40
30148;DHT22;16960;49.404;8.248;2024-01-11T03:24:28;19.80;32.40
30148;DHT22;16960;49.404;8.248;2024-01-11T03:26:56;19.80;32.40
30148;DHT22;16960;49.404;8.248;2024-01-11T03:29:22;19.80;32.40
30148;DHT22;16960;49.404;8.248;2024-01-11T03:31:49;19.80;32.40
30148;DHT22;16960;49.404;8.248;2024-01-11T03:34:18;19.80;32.40
30148;DHT22;16960;49.404;8.248;2024-01-11T03:36:45;19.80;32.40
30148;DHT22;16960;49.404;8.248;2024-01-11T03:39:11;19.80;32.30
30148;DHT22;16960;49.404;8.248;2024-01-11T03:41:43;19.80;32.40
30148;DHT22;16960;49.404;8.248;2024-01-11T03:44:10;19.80;32.30
30148;DHT22;16960;49.404;8.248;2024-01-11T03:46:37;19.80;32.30
30148;DHT22;16960;49.404;8.248;2024-01-11T03:49:04;19.80;32.30
30148;DHT22;16960;49.404;8.248;2024-01-11T03:51:34;19.80;32.20
30148;DHT22;16960;49.404;8.248;2024-01-11T03:54:01;19.80;32.20
30148;DHT22;16960;49.404;8.248;2024-01-11T03:56:28;19.80;32.20
30148;DHT22;16960;49.404;8.248;2024-01-11T03:58:55;19.80;32.20
30148;DHT22;16960;49.404;8.248;2024-01-11T04:01:22;19.80;32.20
30148;DHT22;16960;49.404;8.248;2024-01-11T04:03:49;19.80;32.20
30148;DHT22;16960;49.404;8.248;2024-01-11T04:06:20;19.80;32.20
30148;DHT22;16960;49.404;8.248;2024-01-11T04:08:49;19.80;32.20
30148;DHT22;16960;49.404;8.248;2024-01-11T04:11:16;19.80;32.10
30148;DHT22;16960;49.404;8.248;2024-01-11T04:13:43;19.80;32.10
30148;DHT22;16960;49.404;8.248;2024-01-11T04:16:10;19.80;32.10
30148;DHT22;16960;49.404;8.248;2024-01-11T04:18:37;19.80;32.10
30148;DHT22;16960;49.404;8.248;2024-01-11T04:21:04;19.80;32.10
30148;DHT22;16960;49.404;8.248;2024-01-11T04:23:31;19.80;32.10
30148;DHT22;16960;49.404;8.248;2024-01-11T04:25:59;19.80;32.10
30148;DHT22;16960;49.404;8.248;2024-01-11T04:28:26;19.80;32.10
30148;DHT22;16960;49.404;8.248;2024-01-11T04:30:53;19.80;32.10
30148;DHT22;16960;49.404;8.248;2024-01-11T04:33:20;19.80;32.10
30148;DHT22;16960;49.404;8.248;2024-01-11T04:35:47;19.80;32.10
30148;DHT22;16960;49.404;8.248;2024-01-11T04:38:14;19.80;32.10
30148;DHT22;16960;49.404;8.248;2024-01-11T04:40:41;19.80;32.10
30148;DHT22;16960;49.404;8.248;2024-01-11T04:43:09;19.80;32.10
30148;DHT22;16960;49.404;8.248;2024-01-11T04:45:36;19.80;32.10
30148;DHT22;16960;49.404;8.248;2024-01-11T04:48:04;19.80;32.10
30148;DHT22;16960;49.404;8.248;2024-01-11T04:50:31;19.80;32.10
30148;DHT22;16960;49.404;8.248;2024-01-11T04:52:58;19.80;32.10
30148;DHT22;16960;49.404;8.248;2024-01-11T04:55:25;19.80;32.10
30148;DHT22;16960;49.404;8.248;2024-01-11T04:57:51;19.80;32.10
30148;DHT22;16960;49.404;8.248;2024-01-11T05:00:20;19.80;32.00
30148;DHT22;16960;49.404;8.248;2024-01-11T05:02:47;19.80;32.60
30148;DHT22;16960;49.404;8.248;2024-01-11T05:05:14;19.80;32.00
30148;DHT22;16960;49.404;8.248;2024-01-11T05:07:41;19.80;32.00
30148;DHT22;16960;49.404;8.248;2024-01-11T05:10:08;19.80;32.00
30148;DHT22;16960;49.404;8.248;2024-01-11T05:12:35;19.80;32.70
30148;DHT22;16960;49.404;8.248;2024-01-11T05:15:04;19.80;32.10
30148;DHT22;16960;49.404;8.248;2024-01-11T05:17:33;19.80;32.10
30148;DHT22;16960;49.404;8.248;2024-01-11T05:20:00;19.80;32.20
30148;DHT22;16960;49.404;8.248;2024-01-11T05:22:26;19.90;32.40
30148;DHT22;16960;49.404;8.248;2024-01-11T05:24:53;19.80;32.40
30148;DHT22;16960;49.404;8.248;2024-01-11T05:27:20;19.90;32.50
30148;DHT22;16960;49.404;8.248;2024-01-11T05:29:47;19.90;32.50
30148;DHT22;16960;49.404;8.248;2024-01-11T05:32:14;19.90;32.60
30148;DHT22;16960;49.404;8.248;2024-01-11T05:35:06;19.90;32.50
30148;DHT22;16960;49.404;8.248;2024-01-11T05:37:33;20.00;32.50
30148;DHT22;16960;49.404;8.248;2024-01-11T05:40:00;20.00;32.40
30148;DHT22;16960;49.404;8.248;2024-01-11T05:42:27;20.00;32.40
30148;DHT22;16960;49.404;8.248;2024-01-11T05:44:53;20.00;32.40
30148;DHT22;16960;49.404;8.248;2024-01-11T05:47:20;20.00;32.40
30148;DHT22;16960;49.404;8.248;2024-01-11T05:49:48;20.00;32.40
30148;DHT22;16960;49.404;8.248;2024-01-11T05:52:16;20.00;32.40
30148;DHT22;16960;49.404;8.248;2024-01-11T05:54:43;20.00;32.40
30148;DHT22;16960;49.404;8.248;2024-01-11T05:57:10;20.00;32.40
30148;DHT22;16960;49.404;8.248;2024-01-11T05:59:37;20.00;32.40
30148;DHT22;16960;49.404;8.248;2024-01-11T06:02:04;20.00;32.40
30148;DHT22;16960;49.404;8.248;2024-01-11T06:04:32;20.00;32.40
30148;DHT22;16960;49.404;8.248;2024-01-11T06:06:59;20.00;32.50
30148;DHT22;16960;49.404;8.248;2024-01-11T06:09:27;20.00;32.50
30148;DHT22;16960;49.404;8.248;2024-01-11T06:11:54;20.00;32.50
30148;DHT22;16960;49.404;8.248;2024-01-11T06:14:21;20.10;32.50
30148;DHT22;16960;49.404;8.248;2024-01-11T06:16:48;20.00;32.40
30148;DHT22;16960;49.404;8.248;2024-01-11T06:19:15;20.10;32.50
30148;DHT22;16960;49.404;8.248;2024-01-11T06:21:42;20.10;32.40
30148;DHT22;16960;49.404;8.248;2024-01-11T06:24:09;20.10;32.40
30148;DHT22;16960;49.404;8.248;2024-01-11T06:26:37;20.10;32.40
30148;DHT22;16960;49.404;8.248;2024-01-11T06:29:04;20.10;32.40
30148;DHT22;16960;49.404;8.248;2024-01-11T06:31:31;20.10;32.40
30148;DHT22;16960;49.404;8.248;2024-01-11T06:33:58;20.10;32.40
30148;DHT22;16960;49.404;8.248;2024-01-11T06:36:25;20.10;32.40
30148;DHT22;16960;49.404;8.248;2024-01-11T06:38:52;20.10;32.40
30148;DHT22;16960;49.404;8.248;2024-01-11T06:41:19;20.10;32.50
30148;DHT22;16960;49.404;8.248;2024-01-11T06:43:47;20.10;32.50
30148;DHT22;16960;49.404;8.248;2024-01-11T06:46:19;20.10;32.50
30148;DHT22;16960;49.404;8.248;2024-01-11T06:48:46;20.10;32.50
30148;DHT22;16960;49.404;8.248;2024-01-11T06:51:14;20.10;32.50
30148;DHT22;16960;49.404;8.248;2024-01-11T06:53:41;20.10;32.50
30148;DHT22;16960;49.404;8.248;2024-01-11T06:56:14;20.10;32.50
30148;DHT22;16960;49.404;8.248;2024-01-11T06:58:40;20.10;32.40
30148;DHT22;16960;49.404;8.248;2024-01-11T07:01:09;20.20;32.30
30148;DHT22;16960;49.404;8.248;2024-01-11T07:03:36;20.20;32.20
30148;DHT22;16960;49.404;8.248;2024-01-11T07:06:03;20.20;32.10
30148;DHT22;16960;49.404;8.248;2024-01-11T07:08:30;20.20;32.20
30148;DHT22;16960;49.404;8.248;2024-01-11T07:10:58;20.20;32.50
30148;DHT22;16960;49.404;8.248;2024-01-11T07:13:25;20.20;32.40
30148;DHT22;16960;49.404;8.248;2024-01-11T07:15:51;20.20;32.50
30148;DHT22;16960;49.404;8.248;2024-01-11T07:18:20;20.20;32.50
30148;DHT22;16960;49.404;8.248;2024-01-11T07:20:47;20.20;32.60
30148;DHT22;16960;49.404;8.248;2024-01-11T07:23:14;20.20;32.70
30148;DHT22;16960;49.404;8.248;2024-01-11T07:25:41;20.30;32.70
30148;DHT22;16960;49.404;8.248;2024-01-11T07:28:08;20.30;32.60
30148;DHT22;16960;49.404;8.248;2024-01-11T07:30:35;20.30;32.60
30148;DHT22;16960;49.404;8.248;2024-01-11T07:33:02;20.40;32.50
30148;DHT22;16960;49.404;8.248;2024-01-11T07:35:31;20.40;32.40
30148;DHT22;16960;49.404;8.248;2024-01-11T07:37:58;20.40;32.30
30148;DHT22;16960;49.404;8.248;2024-01-11T07:40:25;20.50;32.20
30148;DHT22;16960;49.404;8.248;2024-01-11T07:42:52;20.50;32.10
30148;DHT22;16960;49.404;8.248;2024-01-11T07:45:19;20.60;32.10
30148;DHT22;16960;49.404;8.248;2024-01-11T07:47:46;20.60;32.00
30148;DHT22;16960;49.404;8.248;2024-01-11T07:50:13;20.60;32.00
30148;DHT22;16960;49.404;8.248;2024-01-11T07:52:42;20.70;32.00
30148;DHT22;16960;49.404;8.248;2024-01-11T07:55:09;20.70;32.00
30148;DHT22;16960;49.404;8.248;2024-01-11T07:57:38;20.70;31.90
30148;DHT22;16960;49.404;8.248;2024-01-11T08:00:06;20.70;31.80
30148;DHT22;16960;49.404;8.248;2024-01-11T08:02:33;20.70;31.80
30148;DHT22;16960;49.404;8.248;2024-01-11T08:05:00;20.80;31.80
30148;DHT22;16960;49.404;8.248;2024-01-11T08:07:28;20.80;31.70
30148;DHT22;16960;49.404;8.248;2024-01-11T08:09:57;20.80;31.70
30148;DHT22;16960;49.404;8.248;2024-01-11T08:12:24;20.80;31.60
30148;DHT22;16960;49.404;8.248;2024-01-11T08:14:51;20.80;31.50
30148;DHT22;16960;49.404;8.248;2024-01-11T08:17:19;20.80;31.50
30148;DHT22;16960;49.404;8.248;2024-01-11T08:19:46;20.80;31.60
30148;DHT22;16960;49.404;8.248;2024-01-11T08:22:13;20.80;31.80
30148;DHT22;16960;49.404;8.248;2024-01-11T08:24:39;20.80;31.70
30148;DHT22;16960;49.404;8.248;2024-01-11T08:27:08;20.80;31.80
30148;DHT22;16960;49.404;8.248;2024-01-11T08:29:35;20.80;31.80
30148;DHT22;16960;49.404;8.248;2024-01-11T08:32:02;20.80;31.70
30148;DHT22;16960;49.404;8.248;2024-01-11T08:34:30;20.80;31.70
30148;DHT22;16960;49.404;8.248;2024-01-11T08:36:56;20.80;31.70
30148;DHT22;16960;49.404;8.248;2024-01-11T08:39:24;20.80;31.60
30148;DHT22;16960;49.404;8.248;2024-01-11T08:41:51;20.80;31.70
30148;DHT22;16960;49.404;8.248;2024-01-11T08:44:19;20.80;31.60
30148;DHT22;16960;49.404;8.248;2024-01-11T08:46:46;20.80;31.60
30148;DHT22;16960;49.404;8.248;2024-01-11T08:49:14;20.80;31.50
30148;DHT22;16960;49.404;8.248;2024-01-11T08:51:41;20.80;31.50
30148;DHT22;16960;49.404;8.248;2024-01-11T08:54:08;20.90;31.60
30148;DHT22;16960;49.404;8.248;2024-01-11T08:56:37;20.90;31.50
30148;DHT22;16960;49.404;8.248;2024-01-11T08:59:05;20.90;31.50
30148;DHT22;16960;49.404;8.248;2024-01-11T09:01:35;20.90;31.50
30148;DHT22;16960;49.404;8.248;2024-01-11T09:04:03;21.00;31.40
30148;DHT22;16960;49.404;8.248;2024-01-11T09:06:30;21.00;31.40
30148;DHT22;16960;49.404;8.248;2024-01-11T09:08:57;21.00;31.40
30148;DHT22;16960;49.404;8.248;2024-01-11T09:11:24;21.00;31.30
30148;DHT22;16960;49.404;8.248;2024-01-11T09:13:51;21.00;31.40
30148;DHT22;16960;49.404;8.248;2024-01-11T09:16:18;21.00;31.40
30148;DHT22;16960;49.404;8.248;2024-01-11T09:18:47;21.00;31.30
30148;DHT22;16960;49.404;8.248;2024-01-11T09:21:13;21.10;31.40
30148;DHT22;16960;49.404;8.248;2024-01-11T09:23:40;21.00;31.30
30148;DHT22;16960;49.404;8.248;2024-01-11T09:26:07;21.10;31.30
30148;DHT22;16960;49.404;8.248;2024-01-11T09:28:34;21.00;31.30
30148;DHT22;16960;49.404;8.248;2024-01-11T09:31:01;21.10;31.50
30148;DHT22;16960;49.404;8.248;2024-01-11T09:33:28;21.10;31.60
30148;DHT22;16960;49.404;8.248;2024-01-11T09:35:56;21.10;31.60
30148;DHT22;16960;49.404;8.248;2024-01-11T09:38:23;21.10;32.20
30148;DHT22;16960;49.404;8.248;2024-01-11T09:40:58;21.10;31.70
30148;DHT22;16960;49.404;8.248;2024-01-11T09:43:27;21.10;31.70
30148;DHT22;16960;49.404;8.248;2024-01-11T09:45:54;21.10;31.80
30148;DHT22;16960;49.404;8.248;2024-01-11T09:48:23;21.10;31.80
30148;DHT22;16960;49.404;8.248;2024-01-11T09:50:52;21.10;31.80
30148;DHT22;16960;49.404;8.248;2024-01-11T09:53:22;21.10;31.70
30148;DHT22;16960;49.404;8.248;2024-01-11T09:55:53;21.10;31.70
30148;DHT22;16960;49.404;8.248;2024-01-11T09:58:21;21.00;31.60
30148;DHT22;16960;49.404;8.248;2024-01-11T10:00:50;21.10;31.80
30148;DHT22;16960;49.404;8.248;2024-01-11T10:03:20;21.00;31.70
30148;DHT22;16960;49.404;8.248;2024-01-11T10:05:49;21.00;31.70
30148;DHT22;16960;49.404;8.248;2024-01-11T10:08:17;21.10;31.80
30148;DHT22;16960;49.404;8.248;2024-01-11T10:10:47;21.10;31.90
30148;DHT22;16960;49.404;8.248;2024-01-11T10:13:14;21.00;31.70
30148;DHT22;16960;49.404;8.248;2024-01-11T10:15:41;21.10;31.90
30148;DHT22;16960;49.404;8.248;2024-01-11T10:18:08;21.00;31.80
30148;DHT22;16960;49.404;8.248;2024-01-11T10:20:36;21.10;31.90
30148;DHT22;16960;49.404;8.248;2024-01-11T10:23:03;21.10;32.00
30148;DHT22;16960;49.404;8.248;2024-01-11T10:25:30;21.10;32.00
30148;DHT22;16960;49.404;8.248;2024-01-11T10:27:59;21.10;32.00
30148;DHT22;16960;49.404;8.248;2024-01-11T10:30:26;21.10;32.00
30148;DHT22;16960;49.404;8.248;2024-01-11T10:32:53;21.10;32.00
30148;DHT22;16960;49.404;8.248;2024-01-11T10:35:20;21.10;31.90
30148;DHT22;16960;49.404;8.248;2024-01-11T10:37:50;21.10;32.00
30148;DHT22;16960;49.404;8.248;2024-01-11T10:40:20;21.20;32.00
30148;DHT22;16960;49.404;8.248;2024-01-11T10:42:51;21.20;32.10
30148;DHT22;16960;49.404;8.248;2024-01-11T10:45:20;21.20;32.10
30148;DHT22;16960;49.404;8.248;2024-01-11T10:47:53;21.20;32.20
30148;DHT22;16960;49.404;8.248;2024-01-11T10:50:22;21.20;32.10
30148;DHT22;16960;49.404;8.248;2024-01-11T10:53:03;21.20;32.00
30148;DHT22;16960;49.404;8.248;2024-01-11T10:55:32;21.20;31.90
30148;DHT22;16960;49.404;8.248;2024-01-11T10:58:00;21.20;31.80
30148;DHT22;16960;49.404;8.248;2024-01-11T11:00:29;21.20;31.80
30148;DHT22;16960;49.404;8.248;2024-01-11T11:02:58;21.30;31.90
30148;DHT22;16960;49.404;8.248;2024-01-11T11:05:27;21.30;31.80
30148;DHT22;16960;49.404;8.248;2024-01-11T11:07:55;21.30;31.80
30148;DHT22;16960;49.404;8.248;2024-01-11T11:10:24;21.30;31.90
30148;DHT22;16960;49.404;8.248;2024-01-11T11:12:54;21.30;32.00
30148;DHT22;16960;49.404;8.248;2024-01-11T11:15:24;21.30;31.90
30148;DHT22;16960;49.404;8.248;2024-01-11T11:17:52;21.30;32.00
30148;DHT22;16960;49.404;8.248;2024-01-11T11:20:19;21.40;31.90
30148;DHT22;16960;49.404;8.248;2024-01-11T11:22:49;21.40;31.80
30148;DHT22;16960;49.404;8.248;2024-01-11T11:25:30;21.40;31.70
30148;DHT22;16960;49.404;8.248;2024-01-11T11:27:57;21.40;31.60
30148;DHT22;16960;49.404;8.248;2024-01-11T11:30:27;21.40;31.60
30148;DHT22;16960;49.404;8.248;2024-01-11T11:32:55;21.40;31.60
30148;DHT22;16960;49.404;8.248;2024-01-11T11:35:23;21.40;31.50
30148;DHT22;16960;49.404;8.248;2024-01-11T11:37:55;21.40;31.50
30148;DHT22;16960;49.404;8.248;2024-01-11T11:40:32;21.40;31.50
30148;DHT22;16960;49.404;8.248;2024-01-11T11:43:01;21.40;31.40
30148;DHT22;16960;49.404;8.248;2024-01-11T11:45:29;21.40;31.40
30148;DHT22;16960;49.404;8.248;2024-01-11T11:47:58;21.30;31.30
30148;DHT22;16960;49.404;8.248;2024-01-11T11:50:25;21.40;31.30
30148;DHT22;16960;49.404;8.248;2024-01-11T11:52:56;21.40;31.30
30148;DHT22;16960;49.404;8.248;2024-01-11T11:55:23;21.40;31.30
30148;DHT22;16960;49.404;8.248;2024-01-11T11:57:51;21.40;31.20
30148;DHT22;16960;49.404;8.248;2024-01-11T12:00:19;21.50;31.30
30148;DHT22;16960;49.404;8.248;2024-01-11T12:02:47;21.50;31.30
30148;DHT22;16960;49.404;8.248;2024-01-11T12:05:16;21.50;31.40
30148;DHT22;16960;49.404;8.248;2024-01-11T12:07:44;21.50;31.50
30148;DHT22;16960;49.404;8.248;2024-01-11T12:10:11;21.50;31.60
30148;DHT22;16960;49.404;8.248;2024-01-11T12:12:39;21.50;32.30
30148;DHT22;16960;49.404;8.248;2024-01-11T12:15:07;21.50;31.80
30148;DHT22;16960;49.404;8.248;2024-01-11T12:17:34;21.50;31.90
30148;DHT22;16960;49.404;8.248;2024-01-11T12:20:01;21.50;31.90
30148;DHT22;16960;49.404;8.248;2024-01-11T12:22:30;21.50;31.90
30148;DHT22;16960;49.404;8.248;2024-01-11T12:24:57;21.50;31.80
30148;DHT22;16960;49.404;8.248;2024-01-11T12:27:24;21.50;31.90
30148;DHT22;16960;49.404;8.248;2024-01-11T12:29:52;21.50;31.90
30148;DHT22;16960;49.404;8.248;2024-01-11T12:32:19;21.60;31.80
30148;DHT22;16960;49.404;8.248;2024-01-11T12:34:48;21.60;31.80
30148;DHT22;16960;49.404;8.248;2024-01-11T12:37:15;21.60;31.80
30148;DHT22;16960;49.404;8.248;2024-01-11T12:39:43;21.60;31.80
30148;DHT22;16960;49.404;8.248;2024-01-11T12:42:10;21.70;31.80
30148;DHT22;16960;49.404;8.248;2024-01-11T12:44:38;21.70;31.80
30148;DHT22;16960;49.404;8.248;2024-01-11T12:47:07;21.70;31.80
30148;DHT22;16960;49.404;8.248;2024-01-11T12:49:34;21.70;31.80
30148;DHT22;16960;49.404;8.248;2024-01-11T12:52:01;21.70;31.70
30148;DHT22;16960;49.404;8.248;2024-01-11T12:54:32;21.70;31.80
30148;DHT22;16960;49.404;8.248;2024-01-11T12:57:01;21.70;31.70
30148;DHT22;16960;49.404;8.248;2024-01-11T12:59:29;21.70;31.80
30148;DHT22;16960;49.404;8.248;2024-01-11T13:01:56;21.70;31.70
30148;DHT22;16960;49.404;8.248;2024-01-11T13:04:25;21.70;31.70
30148;DHT22;16960;49.404;8.248;2024-01-11T13:06:52;21.80;31.70
30148;DHT22;16960;49.404;8.248;2024-01-11T13:09:19;21.80;31.70
30148;DHT22;16960;49.404;8.248;2024-01-11T13:11:46;21.80;31.70
30148;DHT22;16960;49.404;8.248;2024-01-11T13:14:14;21.80;31.60
30148;DHT22;16960;49.404;8.248;2024-01-11T13:16:44;21.90;31.70
30148;DHT22;16960;49.404;8.248;2024-01-11T13:19:12;21.80;31.70
30148;DHT22;16960;49.404;8.248;2024-01-11T13:21:39;21.80;31.50
30148;DHT22;16960;49.404;8.248;2024-01-11T13:24:06;21.90;31.70
30148;DHT22;16960;49.404;8.248;2024-01-11T13:26:34;21.90;31.60
30148;DHT22;16960;49.404;8.248;2024-01-11T13:29:03;21.90;31.50
30148;DHT22;16960;49.404;8.248;2024-01-11T13:31:31;21.90;31.50
30148;DHT22;16960;49.404;8.248;2024-01-11T13:33:59;21.90;31.50
30148;DHT22;16960;49.404;8.248;2024-01-11T13:36:26;21.90;31.50
30148;DHT22;16960;49.404;8.248;2024-01-11T13:38:53;21.90;31.40
30148;DHT22;16960;49.404;8.248;2024-01-11T13:41:20;21.90;31.50
30148;DHT22;16960;49.404;8.248;2024-01-11T13:43:46;21.90;31.50
30148;DHT22;16960;49.404;8.248;2024-01-11T13:46:15;22.00;31.60
30148;DHT22;16960;49.404;8.248;2024-01-11T13:48:46;22.00;31.60
30148;DHT22;16960;49.404;8.248;2024-01-11T13:51:13;22.00;32.20
30148;DHT22;16960;49.404;8.248;2024-01-11T13:53:41;22.00;31.70
30148;DHT22;16960;49.404;8.248;2024-01-11T13:56:08;22.00;31.60
30148;DHT22;16960;49.404;8.248;2024-01-11T13:58:35;22.00;31.60
30148;DHT22;16960;49.404;8.248;2024-01-11T14:01:02;22.00;31.50
30148;DHT22;16960;49.404;8.248;2024-01-11T14:03:29;22.00;31.50
30148;DHT22;16960;49.404;8.248;2024-01-11T14:05:58;22.00;31.50
30148;DHT22;16960;49.404;8.248;2024-01-11T14:08:25;22.00;31.50
30148;DHT22;16960;49.404;8.248;2024-01-11T14:10:52;22.00;31.60
30148;DHT22;16960;49.404;8.248;2024-01-11T14:13:20;22.00;31.60
30148;DHT22;16960;49.404;8.248;2024-01-11T14:15:47;22.00;31.60
30148;DHT22;16960;49.404;8.248;2024-01-11T14:18:16;22.00;31.60
30148;DHT22;16960;49.404;8.248;2024-01-11T14:20:43;22.00;31.60
30148;DHT22;16960;49.404;8.248;2024-01-11T14:23:11;22.00;31.60
30148;DHT22;16960;49.404;8.248;2024-01-11T14:25:38;22.10;31.70
30148;DHT22;16960;49.404;8.248;2024-01-11T14:28:05;22.00;31.60
30148;DHT22;16960;49.404;8.248;2024-01-11T14:30:33;22.00;31.60
30148;DHT22;16960;49.404;8.248;2024-01-11T14:33:00;22.10;31.60
30148;DHT22;16960;49.404;8.248;2024-01-11T14:35:27;22.00;31.60
30148;DHT22;16960;49.404;8.248;2024-01-11T14:37:54;22.10;31.60
30148;DHT22;16960;49.404;8.248;2024-01-11T14:40:22;22.00;31.50
30148;DHT22;16960;49.404;8.248;2024-01-11T14:42:49;22.00;31.50
30148;DHT22;16960;49.404;8.248;2024-01-11T14:45:17;22.10;31.50
30148;DHT22;16960;49.404;8.248;2024-01-11T14:47:44;22.00;31.40
30148;DHT22;16960;49.404;8.248;2024-01-11T14:50:11;22.00;31.40
30148;DHT22;16960;49.404;8.248;2024-01-11T14:52:38;22.00;31.40
30148;DHT22;16960;49.404;8.248;2024-01-11T14:55:06;22.00;31.40
30148;DHT22;16960;49.404;8.248;2024-01-11T14:57:36;22.00;31.50
30148;DHT22;16960;49.404;8.248;2024-01-11T15:00:04;22.00;31.50
30148;DHT22;16960;49.404;8.248;2024-01-11T15:02:33;22.00;31.50
30148;DHT22;16960;49.404;8.248;2024-01-11T15:05:00;22.00;31.50
30148;DHT22;16960;49.404;8.248;2024-01-11T15:07:26;22.00;31.50
30148;DHT22;16960;49.404;8.248;2024-01-11T15:09:53;22.10;31.60
30148;DHT22;16960;49.404;8.248;2024-01-11T15:12:20;22.00;31.50
30148;DHT22;16960;49.404;8.248;2024-01-11T15:14:49;22.10;31.60
30148;DHT22;16960;49.404;8.248;2024-01-11T15:17:16;22.00;31.50
30148;DHT22;16960;49.404;8.248;2024-01-11T15:19:43;22.10;31.50
30148;DHT22;16960;49.404;8.248;2024-01-11T15:22:10;22.00;31.50
30148;DHT22;16960;49.404;8.248;2024-01-11T15:24:40;22.00;31.50
30148;DHT22;16960;49.404;8.248;2024-01-11T15:27:07;22.00;31.50
30148;DHT22;16960;49.404;8.248;2024-01-11T15:29:34;22.00;31.50
30148;DHT22;16960;49.404;8.248;2024-01-11T15:32:02;22.00;31.50